This is the latest recevied weather packets stored in our database for station/object SV2RCS-13. If no packets are shown the sender has not sent any weather packets the latest 10 day(s).
| Time | Temp. | Humidity | Pressure | Rain* | Wind** | Luminosity | Snow |
|---|---|---|---|---|---|---|---|
| 1777197415 | 21.11° C | 31% | 1012.1 hPa | - | - | - | - |
| 1777196816 | 21.11° C | 30% | 1012.2 hPa | - | - | - | - |
| 1777196214 | 21.67° C | 32% | 1011.9 hPa | - | - | - | - |
| 1777195615 | 21.67° C | 33% | 1012 hPa | - | - | - | - |
| 1777195017 | 22.22° C | 33% | 1012 hPa | - | - | - | - |
| 1777194415 | 22.22° C | 32% | 1012 hPa | - | - | - | - |
| 1777193814 | 23.33° C | 31% | 1011.9 hPa | - | - | - | - |
| 1777193214 | 23.33° C | 30% | 1011.9 hPa | - | - | - | - |
| 1777192614 | 22.22° C | 31% | 1012.2 hPa | - | - | - | - |
| 1777192014 | 23.33° C | 32% | 1012.1 hPa | - | - | - | - |
| 1777191415 | 22.22° C | 33% | 1012.2 hPa | - | - | - | - |
| 1777190815 | 22.22° C | 33% | 1012.2 hPa | - | - | - | - |
| 1777190215 | 21.11° C | 32% | 1012.5 hPa | - | - | - | - |
| 1777189614 | 22.22° C | 30% | 1012.4 hPa | - | - | - | - |
| 1777189014 | 21.67° C | 31% | 1012.4 hPa | - | - | - | - |
| 1777188415 | 21.67° C | 31% | 1012.6 hPa | - | - | - | - |
| 1777187815 | 21.11° C | 33% | 1012.9 hPa | - | - | - | - |
| 1777187214 | 20.56° C | 32% | 1012.9 hPa | - | - | - | - |
| 1777186614 | 21.11° C | 33% | 1012.9 hPa | - | - | - | - |
| 1777186014 | 19.44° C | 33% | 1013.1 hPa | - | - | - | - |
| 1777185414 | 20.56° C | 30% | 1012.9 hPa | - | - | - | - |
| 1777184814 | 20° C | 30% | 1013.1 hPa | - | - | - | - |
| 1777184214 | 20° C | 30% | 1013.3 hPa | - | - | - | - |
| 1777183614 | 19.44° C | 32% | 1013.4 hPa | - | - | - | - |
| 1777183014 | 19.44° C | 32% | 1013.5 hPa | - | - | - | - |
* Rain since midnight (hover to see other rain measurements)
** Current wind speed in m/s (hover to see current wind gust speed)